Time;durP1;ratioP1;P1;durP2;ratioP2;P2;SDS_P1;SDS_P2;PMS_P1;PMS_P2;Temp;Humidity;BMP_temperature;BMP_pressure;BME280_temperature;BME280_humidity;BME280_pressure;Samples;Min_cycle;Max_cycle;Signal;HPM_P1;HPM_P2
2022/04/15 00:02:18;;;;;;;15.43;8.88;;;9.40;99.90;;;;;;5142382;27;20512;-47
2022/04/15 00:04:43;;;;;;;16.48;8.70;;;9.30;99.90;;;;;;5144195;27;20076;-47
2022/04/15 00:07:10;;;;;;;17.08;9.55;;;9.30;99.90;;;;;;5143680;27;20062;-47
2022/04/15 00:09:36;;;;;;;17.58;9.05;;;9.30;99.90;;;;;;5150152;27;20025;-48
2022/04/15 00:12:07;;;;;;;14.90;8.07;;;9.30;99.90;;;;;;5143474;27;20019;-49
2022/04/15 00:14:32;;;;;;;;;;;9.30;99.90;;;;;;5150915;27;20027;-48
2022/04/15 00:16:58;;;;;;;18.30;8.18;;;9.30;99.90;;;;;;5131549;27;19926;-50
2022/04/15 00:19:23;;;;;;;14.68;8.50;;;9.20;99.90;;;;;;5147638;27;20057;-49
2022/04/15 00:21:50;;;;;;;15.27;7.93;;;9.20;99.90;;;;;;5132395;27;20376;-48
2022/04/15 00:24:15;;;;;;;12.40;8.63;;;9.20;99.90;;;;;;5145821;27;20596;-60
2022/04/15 00:26:41;;;;;;;13.73;8.43;;;9.20;99.90;;;;;;5137618;27;20071;-60
2022/04/15 00:29:06;;;;;;;14.70;8.70;;;9.10;99.90;;;;;;5144836;27;20031;-60
2022/04/15 00:31:33;;;;;;;12.32;8.40;;;9.20;99.90;;;;;;5139318;27;20023;-60
2022/04/15 00:33:59;;;;;;;14.57;8.25;;;9.10;99.90;;;;;;5141647;27;20051;-61
2022/04/15 00:36:24;;;;;;;11.45;8.27;;;9.00;99.90;;;;;;5136110;27;20086;-60
2022/04/15 00:38:50;;;;;;;11.07;8.18;;;9.00;99.90;;;;;;5141407;27;20153;-60
2022/04/15 00:41:16;;;;;;;10.63;8.18;;;8.90;99.90;;;;;;5140411;27;20467;-60
2022/04/15 00:43:41;;;;;;;14.02;8.55;;;8.90;99.90;;;;;;5138383;27;20041;-60
2022/04/15 00:46:08;;;;;;;13.25;8.48;;;8.90;99.90;;;;;;5146007;27;20491;-60
2022/04/15 00:48:36;;;;;;;13.02;8.55;;;8.80;99.90;;;;;;5128132;27;20687;-60
2022/04/15 00:51:02;;;;;;;13.80;8.50;;;8.70;99.90;;;;;;5129622;27;20502;-60
2022/04/15 00:53:29;;;;;;;12.48;8.57;;;8.70;99.90;;;;;;5128191;28;20023;-60
2022/04/15 00:55:59;;;;;;;11.32;7.90;;;8.70;99.90;;;;;;5142554;27;20046;-60
2022/04/15 00:58:25;;;;;;;13.15;8.10;;;8.70;99.90;;;;;;5151829;27;20027;-60
2022/04/15 01:00:54;;;;;;;14.75;9.30;;;8.70;99.90;;;;;;5134510;27;20438;-59
2022/04/15 01:03:21;;;;;;;14.35;8.57;;;8.70;99.90;;;;;;5146002;27;20543;-60
2022/04/15 01:05:49;;;;;;;12.13;8.70;;;8.70;99.90;;;;;;5137720;27;20018;-60
2022/04/15 01:08:19;;;;;;;13.80;8.43;;;8.70;99.90;;;;;;5145729;27;20034;-60
2022/04/15 01:10:47;;;;;;;10.63;8.23;;;8.70;99.90;;;;;;5139182;27;20027;-59
2022/04/15 01:13:13;;;;;;;16.95;8.05;;;8.60;99.90;;;;;;5144263;27;20033;-59
2022/04/15 01:15:40;;;;;;;15.40;8.75;;;8.60;99.90;;;;;;5146035;27;20502;-60
2022/04/15 01:18:06;;;;;;;14.23;8.20;;;8.60;99.90;;;;;;5142880;27;20436;-59
2022/04/15 01:20:31;;;;;;;15.93;8.75;;;8.60;99.90;;;;;;5151732;27;20019;-60
2022/04/15 01:23:07;;;;;;;18.70;7.80;;;8.60;99.90;;;;;;5150923;27;20027;-59
2022/04/15 01:25:33;;;;;;;17.40;8.50;;;8.60;99.90;;;;;;5151409;27;20039;-59
2022/04/15 01:27:59;;;;;;;13.90;7.60;;;8.60;99.90;;;;;;5150506;27;20059;-60
2022/04/15 01:30:24;;;;;;;10.23;8.07;;;8.60;99.90;;;;;;5134527;27;20020;-59
2022/04/15 01:32:50;;;;;;;13.60;7.75;;;8.60;99.90;;;;;;5149869;27;20097;-59
2022/04/15 01:35:17;;;;;;;14.35;8.13;;;8.60;99.90;;;;;;5140833;27;20023;-59
2022/04/15 01:37:45;;;;;;;10.57;7.75;;;8.50;99.90;;;;;;5149019;27;20501;-59
2022/04/15 01:40:12;;;;;;;21.17;8.60;;;8.50;99.90;;;;;;5135535;27;20033;-62
2022/04/15 01:42:39;;;;;;;12.02;7.90;;;8.60;99.90;;;;;;5141272;27;20022;-59
2022/04/15 01:45:05;;;;;;;10.23;7.72;;;8.50;99.90;;;;;;5149509;27;20026;-59
2022/04/15 01:47:31;;;;;;;16.98;8.50;;;8.50;99.90;;;;;;5138830;27;20016;-60
2022/04/15 01:49:57;;;;;;;10.88;7.68;;;8.60;99.90;;;;;;5149829;27;20840;-59
2022/04/15 01:52:22;;;;;;;15.65;7.70;;;8.50;99.90;;;;;;5150764;27;20725;-60
2022/04/15 01:54:48;;;;;;;15.38;8.65;;;8.50;99.90;;;;;;5147006;27;20412;-60
2022/04/15 01:57:14;;;;;;;13.80;8.18;;;8.50;99.90;;;;;;5140657;27;20068;-59
2022/04/15 01:59:41;;;;;;;15.15;8.32;;;8.50;99.90;;;;;;5149675;27;20395;-60
2022/04/15 02:02:06;;;;;;;11.43;7.55;;;8.50;99.90;;;;;;5149820;27;20030;-61
2022/04/15 02:04:33;;;;;;;9.63;7.82;;;8.50;99.90;;;;;;5144908;27;20117;-60
2022/04/15 02:06:59;;;;;;;11.80;8.50;;;8.50;99.90;;;;;;5142061;27;20026;-60
2022/04/15 02:09:24;;;;;;;14.80;8.35;;;8.40;99.90;;;;;;5154480;27;20131;-60
2022/04/15 02:11:50;;;;;;;13.27;8.38;;;8.40;99.90;;;;;;5154851;27;20495;-60
2022/04/15 02:14:19;;;;;;;12.32;8.63;;;8.40;99.90;;;;;;5144041;27;20471;-60
2022/04/15 02:16:45;;;;;;;13.80;8.43;;;8.40;99.90;;;;;;5146127;27;20022;-60
2022/04/15 02:19:11;;;;;;;16.08;8.77;;;8.30;99.90;;;;;;5154913;27;20022;-60
2022/04/15 02:21:37;;;;;;;16.23;8.65;;;8.30;99.90;;;;;;5154718;27;20025;-59
2022/04/15 02:24:02;;;;;;;13.02;8.80;;;8.30;99.90;;;;;;5154143;27;20022;-60
2022/04/15 02:26:28;;;;;;;14.32;8.52;;;8.30;99.90;;;;;;5146051;27;20034;-60
2022/04/15 02:28:53;;;;;;;15.10;8.65;;;8.30;99.90;;;;;;5144816;27;20027;-60
2022/04/15 02:31:19;;;;;;;18.15;9.30;;;8.30;99.90;;;;;;5154509;27;20479;-60
2022/04/15 02:33:45;;;;;;;16.38;9.45;;;8.30;99.90;;;;;;5144224;27;20030;-59
2022/04/15 02:36:10;;;;;;;13.15;8.63;;;8.40;99.90;;;;;;5147855;27;20503;-61
2022/04/15 02:38:36;;;;;;;11.40;8.05;;;8.40;99.90;;;;;;5148890;27;20491;-59
2022/04/15 02:41:03;;;;;;;12.23;8.70;;;8.40;99.90;;;;;;5146786;27;20037;-59
2022/04/15 02:43:33;;;;;;;13.32;7.57;;;8.50;99.90;;;;;;5145259;27;20066;-60
2022/04/15 02:46:02;;;;;;;10.00;7.70;;;8.50;99.90;;;;;;5134115;27;20015;-61
2022/04/15 02:48:29;;;;;;;14.23;8.30;;;8.50;99.90;;;;;;5133752;27;20027;-60
2022/04/15 02:50:55;;;;;;;11.45;8.48;;;8.40;99.90;;;;;;5136496;27;20019;-59
2022/04/15 02:53:23;;;;;;;10.38;7.63;;;8.40;99.90;;;;;;5148790;27;20019;-60
2022/04/15 02:55:49;;;;;;;11.55;8.30;;;8.40;99.90;;;;;;5149591;27;20133;-60
2022/04/15 02:58:14;;;;;;;11.90;8.50;;;8.40;99.90;;;;;;5148025;27;20030;-60
2022/04/15 03:00:40;;;;;;;10.93;8.10;;;8.40;99.90;;;;;;5138184;27;20369;-60
2022/04/15 03:03:05;;;;;;;16.48;8.45;;;8.40;99.90;;;;;;5144669;27;20371;-60
2022/04/15 03:05:31;;;;;;;14.27;8.93;;;8.30;99.90;;;;;;5154092;27;20026;-59
2022/04/15 03:07:56;;;;;;;12.95;9.23;;;8.30;99.90;;;;;;5153997;27;20022;-60
2022/04/15 03:10:22;;;;;;;12.90;8.35;;;8.30;99.90;;;;;;5137435;27;20478;-60
2022/04/15 03:12:48;;;;;;;14.68;8.65;;;8.30;99.90;;;;;;5145080;27;20038;-59
2022/04/15 03:15:13;;;;;;;12.30;8.32;;;8.30;99.90;;;;;;5145558;27;20027;-60
2022/04/15 03:17:39;;;;;;;16.88;9.98;;;8.30;99.90;;;;;;5143821;27;20019;-60
2022/04/15 03:20:06;;;;;;;16.70;9.43;;;8.30;99.90;;;;;;5148299;27;20023;-60
2022/04/15 03:22:50;;;;;;;14.73;9.05;;;8.20;99.90;;;;;;5136363;27;20110;-59
2022/04/15 03:25:17;;;;;;;15.57;8.43;;;8.20;99.90;;;;;;5133015;27;20118;-60
2022/04/15 03:27:43;;;;;;;17.20;9.57;;;8.20;99.90;;;;;;5133007;27;20088;-59
2022/04/15 03:30:11;;;;;;;15.63;8.60;;;8.20;99.90;;;;;;5129452;27;20046;-60
2022/04/15 03:32:53;;;;;;;17.35;9.25;;;8.20;99.90;;;;;;5144765;27;20014;-59
2022/04/15 03:35:21;;;;;;;14.15;9.50;;;8.20;99.90;;;;;;5141925;27;20027;-60
2022/04/15 03:37:51;;;;;;;13.07;8.30;;;8.20;99.90;;;;;;5144161;27;20094;-60
2022/04/15 03:40:17;;;;;;;12.60;8.50;;;8.20;99.90;;;;;;5129212;27;20019;-59
2022/04/15 03:42:50;;;;;;;20.23;9.48;;;8.20;99.90;;;;;;5134228;27;20195;-60
2022/04/15 03:45:22;;;;;;;14.10;8.63;;;8.20;99.90;;;;;;5139076;27;20095;-60
2022/04/15 03:47:49;;;;;;;16.38;8.98;;;8.20;99.90;;;;;;5133630;27;20084;-59
2022/04/15 03:50:15;;;;;;;14.38;9.05;;;8.20;99.90;;;;;;5129363;27;20015;-59
2022/04/15 03:52:44;;;;;;;11.27;7.93;;;8.20;99.90;;;;;;5144322;27;20041;-59
2022/04/15 03:55:11;;;;;;;11.48;8.55;;;8.20;99.90;;;;;;5135622;27;20604;-60
2022/04/15 03:57:37;;;;;;;14.30;9.40;;;8.10;99.90;;;;;;5142714;27;20030;-60
2022/04/15 04:00:09;;;;;;;16.08;9.65;;;8.20;99.90;;;;;;5138414;27;20019;-59
2022/04/15 04:02:35;;;;;;;13.50;8.57;;;8.20;99.90;;;;;;5143427;27;20023;-60
2022/04/15 04:05:01;;;;;;;16.25;8.55;;;8.10;99.90;;;;;;5152130;27;20023;-60
2022/04/15 04:07:26;;;;;;;13.82;8.52;;;8.20;99.90;;;;;;5152795;27;20058;-60
2022/04/15 04:09:52;;;;;;;17.38;9.45;;;8.10;99.90;;;;;;5136154;27;20401;-59
2022/04/15 04:12:18;;;;;;;18.27;10.45;;;8.10;99.90;;;;;;5124197;27;20019;-59
2022/04/15 04:14:43;;;;;;;14.77;9.75;;;8.00;99.90;;;;;;5122232;27;20561;-60
2022/04/15 04:17:08;;;;;;;14.82;9.32;;;8.10;99.90;;;;;;5126833;27;20102;-59
2022/04/15 04:19:34;;;;;;;14.48;8.65;;;8.10;99.90;;;;;;5117986;27;20028;-59
2022/04/15 04:21:59;;;;;;;10.77;8.02;;;8.10;99.90;;;;;;5124891;27;20024;-60
2022/04/15 04:24:25;;;;;;;20.83;9.75;;;8.10;99.90;;;;;;5121248;27;20034;-60
2022/04/15 04:26:50;;;;;;;14.15;8.10;;;8.10;99.90;;;;;;5120031;27;20425;-60
2022/04/15 04:29:16;;;;;;;18.73;9.52;;;8.10;99.90;;;;;;5116913;27;20049;-60
2022/04/15 04:31:42;;;;;;;16.48;9.43;;;8.10;99.90;;;;;;5128394;27;20041;-60
2022/04/15 04:34:07;;;;;;;16.80;9.93;;;8.10;99.90;;;;;;5122861;27;20122;-59
2022/04/15 04:36:33;;;;;;;13.90;9.48;;;8.10;99.90;;;;;;5135230;27;20034;-60
2022/04/15 04:38:58;;;;;;;15.25;8.88;;;8.00;99.90;;;;;;5131497;27;20027;-60
2022/04/15 04:41:24;;;;;;;12.70;8.80;;;8.00;99.90;;;;;;5124170;27;20109;-60
2022/04/15 04:43:50;;;;;;;16.42;9.75;;;8.00;99.90;;;;;;5121020;27;20411;-60
2022/04/15 04:46:15;;;;;;;15.75;10.45;;;8.00;99.90;;;;;;5116641;27;20043;-60
2022/04/15 04:48:41;;;;;;;14.40;9.63;;;8.00;99.90;;;;;;5119787;27;20114;-60
2022/04/15 04:51:07;;;;;;;13.05;9.23;;;7.90;99.90;;;;;;5117296;27;20077;-60
2022/04/15 04:53:32;;;;;;;18.13;11.00;;;7.90;99.90;;;;;;5114462;27;20030;-60
2022/04/15 04:55:58;;;;;;;17.17;10.63;;;8.00;99.90;;;;;;5115973;27;20058;-59
2022/04/15 04:58:23;;;;;;;14.20;8.90;;;8.00;99.90;;;;;;5128058;27;20028;-60
2022/04/15 05:00:49;;;;;;;19.60;9.63;;;8.00;99.90;;;;;;5123040;27;20059;-60
2022/04/15 05:03:14;;;;;;;15.50;9.77;;;8.00;99.90;;;;;;5118524;27;20641;-61
2022/04/15 05:05:40;;;;;;;17.30;10.30;;;8.00;99.90;;;;;;5125210;27;20073;-61
2022/04/15 05:08:06;;;;;;;16.35;10.15;;;8.00;99.90;;;;;;5143303;27;20019;-60
2022/04/15 05:10:32;;;;;;;17.30;9.93;;;8.00;99.90;;;;;;5150768;27;20546;-61
2022/04/15 05:12:59;;;;;;;15.38;10.52;;;8.00;99.90;;;;;;5120237;27;20022;-60
2022/04/15 05:15:24;;;;;;;28.13;14.52;;;8.00;99.90;;;;;;5137958;27;20573;-60
2022/04/15 05:17:50;;;;;;;17.73;10.88;;;8.00;99.90;;;;;;5123322;27;20027;-60
2022/04/15 05:20:15;;;;;;;17.83;10.57;;;8.00;99.90;;;;;;5115779;27;20438;-62
2022/04/15 05:22:41;;;;;;;15.98;11.23;;;8.00;99.90;;;;;;5118228;27;20103;-59
2022/04/15 05:25:07;;;;;;;16.52;11.43;;;8.00;99.90;;;;;;5123835;27;20015;-60
2022/04/15 05:27:32;;;;;;;19.48;11.68;;;8.00;99.90;;;;;;5118259;28;20098;-60
2022/04/15 05:29:58;;;;;;;16.70;10.57;;;8.00;99.90;;;;;;5122836;27;20030;-60
2022/04/15 05:32:23;;;;;;;20.25;12.15;;;8.00;99.90;;;;;;5127658;27;20015;-60
2022/04/15 05:34:54;;;;;;;15.93;10.43;;;8.10;99.90;;;;;;5119336;27;20050;-59
2022/04/15 05:37:19;;;;;;;17.98;11.27;;;8.10;99.90;;;;;;5117939;27;20058;-59
2022/04/15 05:39:45;;;;;;;14.63;10.38;;;8.10;99.90;;;;;;5124919;27;20063;-60
2022/04/15 05:42:10;;;;;;;20.90;10.73;;;8.10;99.90;;;;;;5135728;27;20298;-59
2022/04/15 05:44:36;;;;;;;16.55;10.50;;;8.20;99.90;;;;;;5113273;27;20088;-60
2022/04/15 05:47:01;;;;;;;17.50;9.80;;;8.20;99.90;;;;;;5143437;27;20332;-60
2022/04/15 05:49:27;;;;;;;14.95;10.05;;;8.30;99.90;;;;;;5146501;27;20023;-60
2022/04/15 05:51:53;;;;;;;13.68;9.60;;;8.30;99.90;;;;;;5155314;27;20034;-60
2022/04/15 05:54:18;;;;;;;14.73;9.75;;;8.30;99.90;;;;;;5154239;27;20046;-60
2022/04/15 05:56:44;;;;;;;14.07;9.88;;;8.30;99.90;;;;;;5155025;27;20356;-59
2022/04/15 05:59:09;;;;;;;15.65;9.10;;;8.30;99.90;;;;;;5145766;27;20011;-60
2022/04/15 06:01:35;;;;;;;16.77;9.70;;;8.30;99.90;;;;;;5146181;27;20485;-60
2022/04/15 06:04:00;;;;;;;14.52;9.50;;;8.40;99.90;;;;;;5154164;27;20083;-59
2022/04/15 06:06:26;;;;;;;14.70;9.05;;;8.40;99.90;;;;;;5153610;27;20030;-59
2022/04/15 06:08:52;;;;;;;11.63;8.98;;;8.40;99.90;;;;;;5154792;27;20022;-59
2022/04/15 06:11:17;;;;;;;15.02;8.88;;;8.50;99.90;;;;;;5154660;27;20010;-59
2022/04/15 06:13:46;;;;;;;11.18;8.70;;;8.40;99.90;;;;;;5132857;27;20068;-58
2022/04/15 06:16:16;;;;;;;12.35;8.48;;;8.50;99.90;;;;;;5126253;27;20019;-58
2022/04/15 06:18:42;;;;;;;13.98;8.90;;;8.50;99.90;;;;;;5115067;27;20016;-58
2022/04/15 06:21:07;;;;;;;15.93;9.27;;;8.50;99.90;;;;;;5125487;27;20601;-58
2022/04/15 06:23:33;;;;;;;14.02;8.55;;;8.60;99.90;;;;;;5122822;27;20439;-58
2022/04/15 06:25:58;;;;;;;12.82;8.82;;;8.60;99.90;;;;;;5122907;27;20031;-58
2022/04/15 06:28:24;;;;;;;15.05;9.70;;;8.70;99.90;;;;;;5132412;27;20046;-58
2022/04/15 06:30:50;;;;;;;13.88;9.48;;;8.70;99.90;;;;;;5124492;27;20015;-58
2022/04/15 06:33:17;;;;;;;13.63;8.82;;;8.70;99.90;;;;;;5128147;27;20028;-58
2022/04/15 06:35:42;;;;;;;11.77;8.27;;;8.80;99.90;;;;;;5125321;27;20236;-58
2022/04/15 06:38:08;;;;;;;17.85;9.82;;;9.00;99.90;;;;;;5124091;27;20073;-59
2022/04/15 06:40:35;;;;;;;12.38;8.65;;;9.00;99.90;;;;;;5129270;27;20399;-58
2022/04/15 06:43:01;;;;;;;14.73;8.65;;;9.10;99.90;;;;;;5124030;27;20468;-58
2022/04/15 06:45:26;;;;;;;17.58;9.85;;;9.20;99.90;;;;;;5124660;27;20033;-58
2022/04/15 06:47:52;;;;;;;12.60;8.43;;;9.30;99.90;;;;;;5125499;27;20252;-59
2022/04/15 06:50:19;;;;;;;13.57;7.68;;;9.20;99.90;;;;;;5125466;27;20023;-59
2022/04/15 06:52:44;;;;;;;13.68;7.63;;;9.20;99.90;;;;;;5115701;27;20027;-58
2022/04/15 06:55:10;;;;;;;10.73;7.72;;;9.20;99.90;;;;;;5128614;27;20031;-59
2022/04/15 06:57:35;;;;;;;14.18;8.48;;;9.10;99.90;;;;;;5131798;27;20325;-58
2022/04/15 07:00:01;;;;;;;12.68;7.80;;;9.10;99.90;;;;;;5137029;27;20019;-61
2022/04/15 07:02:26;;;;;;;15.88;8.82;;;9.10;99.90;;;;;;5147929;27;20105;-60
2022/04/15 07:04:52;;;;;;;13.18;8.63;;;9.10;99.90;;;;;;5151789;27;20027;-59
2022/04/15 07:07:18;;;;;;;13.43;8.45;;;9.20;99.90;;;;;;5152288;27;20019;-59
2022/04/15 07:09:44;;;;;;;16.55;9.38;;;9.10;99.90;;;;;;5152194;27;20031;-59
2022/04/15 07:12:10;;;;;;;16.58;9.15;;;9.30;99.90;;;;;;5127202;27;20027;-60
2022/04/15 07:14:35;;;;;;;13.63;9.00;;;9.40;99.90;;;;;;5116137;27;20024;-60
2022/04/15 07:17:01;;;;;;;14.93;9.32;;;9.40;99.90;;;;;;5146086;27;20031;-60
2022/04/15 07:19:27;;;;;;;14.38;9.77;;;9.50;99.90;;;;;;5130067;27;20406;-60
2022/04/15 07:21:52;;;;;;;15.13;8.73;;;9.60;99.90;;;;;;5131245;27;20019;-59
2022/04/15 07:24:18;;;;;;;13.70;8.23;;;9.60;99.90;;;;;;5130466;27;20590;-59
2022/04/15 07:26:43;;;;;;;13.82;8.93;;;9.70;99.90;;;;;;5128033;27;20746;-60
2022/04/15 07:29:10;;;;;;;13.18;8.57;;;9.80;99.90;;;;;;5142973;27;20356;-49
2022/04/15 07:31:35;;;;;;;12.32;8.38;;;9.90;99.90;;;;;;5152168;27;20034;-52
2022/04/15 07:34:03;;;;;;;12.88;8.75;;;10.00;99.90;;;;;;5152639;27;20023;-49
2022/04/15 07:36:43;;;;;;;10.52;7.72;;;10.10;99.90;;;;;;5152952;27;20049;-48
2022/04/15 07:39:14;;;;;;;12.23;8.05;;;10.10;99.90;;;;;;5153454;27;20023;-50
2022/04/15 07:41:41;;;;;;;11.48;8.25;;;10.20;99.90;;;;;;5153229;27;20014;-54
2022/04/15 07:44:08;;;;;;;9.25;7.38;;;10.30;99.90;;;;;;5146425;27;21498;-51
2022/04/15 07:46:35;;;;;;;11.20;8.07;;;10.30;99.90;;;;;;5136514;27;20035;-51
2022/04/15 07:49:01;;;;;;;14.25;7.93;;;10.20;99.90;;;;;;5121971;27;20034;-52
2022/04/15 07:51:27;;;;;;;10.27;7.75;;;10.20;99.90;;;;;;5122751;27;20050;-52
2022/04/15 07:53:52;;;;;;;12.82;7.45;;;10.20;99.90;;;;;;5116084;27;20050;-51
2022/04/15 07:56:18;;;;;;;11.65;7.60;;;10.20;99.90;;;;;;5142646;27;20359;-52
2022/04/15 07:58:43;;;;;;;11.32;7.65;;;10.20;99.90;;;;;;5152251;27;20026;-52
2022/04/15 08:01:10;;;;;;;11.85;6.80;;;10.30;99.90;;;;;;5134653;27;20596;-56
2022/04/15 08:03:36;;;;;;;12.75;7.07;;;10.30;99.90;;;;;;5142990;27;20062;-51
2022/04/15 08:06:02;;;;;;;8.85;7.10;;;10.40;99.90;;;;;;5144307;27;20634;-51
2022/04/15 08:08:27;;;;;;;10.77;6.93;;;10.40;99.90;;;;;;5135997;27;20031;-52
2022/04/15 08:10:53;;;;;;;10.80;7.35;;;10.30;99.90;;;;;;5128270;27;20023;-49
2022/04/15 08:13:19;;;;;;;13.13;7.28;;;10.30;99.90;;;;;;5134376;27;20026;-53
2022/04/15 08:15:44;;;;;;;12.20;7.22;;;10.30;99.90;;;;;;5150568;27;20021;-49
2022/04/15 08:18:10;;;;;;;12.10;8.15;;;10.30;99.90;;;;;;5135950;27;20597;-52
2022/04/15 08:20:35;;;;;;;11.85;6.78;;;10.20;99.90;;;;;;5126731;27;20554;-49
2022/04/15 08:23:03;;;;;;;12.02;7.47;;;10.30;99.90;;;;;;5119465;27;20011;-51
2022/04/15 08:25:29;;;;;;;12.98;6.85;;;10.30;99.90;;;;;;5127529;27;20146;-49
2022/04/15 08:27:55;;;;;;;12.10;7.10;;;10.40;99.90;;;;;;5138098;27;20047;-52
2022/04/15 08:30:21;;;;;;;12.30;7.85;;;10.40;99.90;;;;;;5146880;27;20445;-52
2022/04/15 08:32:53;;;;;;;10.13;6.80;;;10.40;99.90;;;;;;5138519;27;20502;-49
2022/04/15 08:35:19;;;;;;;9.70;6.95;;;10.40;99.90;;;;;;5136532;27;20516;-49
2022/04/15 08:37:44;;;;;;;13.10;7.50;;;10.40;99.90;;;;;;5129975;27;20020;-49
2022/04/15 08:40:11;;;;;;;13.63;7.90;;;10.40;99.90;;;;;;5119010;27;20038;-50
2022/04/15 08:42:38;;;;;;;10.90;6.35;;;10.40;99.90;;;;;;5122294;27;20527;-48
2022/04/15 08:45:06;;;;;;;9.30;6.20;;;10.40;99.90;;;;;;5117056;27;20118;-50
2022/04/15 08:47:33;;;;;;;12.95;7.40;;;10.40;99.90;;;;;;5119709;27;20022;-50
2022/04/15 08:49:59;;;;;;;11.85;7.28;;;10.50;99.90;;;;;;5119948;27;20058;-49
2022/04/15 08:52:25;;;;;;;9.57;6.50;;;10.60;99.90;;;;;;5122038;27;20043;-52
2022/04/15 08:54:50;;;;;;;12.63;7.75;;;10.60;99.90;;;;;;5119543;27;20024;-50
2022/04/15 08:57:16;;;;;;;12.88;6.93;;;10.60;99.90;;;;;;5124432;27;20476;-51
2022/04/15 08:59:41;;;;;;;9.05;6.20;;;10.60;99.90;;;;;;5131784;27;20028;-49
2022/04/15 09:02:07;;;;;;;10.45;6.72;;;10.60;99.90;;;;;;5137039;27;20038;-48
2022/04/15 09:04:33;;;;;;;10.50;6.68;;;10.70;99.90;;;;;;5147783;27;20365;-49
2022/04/15 09:07:00;;;;;;;10.85;6.68;;;10.80;99.90;;;;;;5134372;27;20360;-49
2022/04/15 09:09:31;;;;;;;9.75;6.25;;;10.80;99.90;;;;;;5142909;27;20030;-50
2022/04/15 09:11:58;;;;;;;17.20;7.20;;;10.90;99.90;;;;;;5137796;27;20015;-48
2022/04/15 09:14:25;;;;;;;10.35;5.63;;;11.10;99.90;;;;;;5142305;27;20022;-47
2022/04/15 09:16:51;;;;;;;9.15;6.05;;;11.40;99.90;;;;;;5144878;27;20053;-51
2022/04/15 09:19:17;;;;;;;9.07;5.65;;;11.70;99.90;;;;;;5147305;27;20026;-52
2022/04/15 09:21:54;;;;;;;6.72;4.80;;;11.90;99.90;;;;;;5149104;27;20024;-50
2022/04/15 09:24:30;;;;;;;9.75;5.30;;;12.30;99.90;;;;;;5144619;27;20034;-52
2022/04/15 09:26:56;;;;;;;8.50;6.05;;;12.50;99.90;;;;;;5130449;27;20024;-47
2022/04/15 09:29:23;;;;;;;6.85;5.28;;;12.70;99.90;;;;;;5138110;27;20015;-43
2022/04/15 09:31:55;;;;;;;9.68;6.30;;;12.80;99.90;;;;;;5154431;27;20018;-41
2022/04/15 09:34:21;;;;;;;8.25;5.13;;;12.80;99.90;;;;;;5142482;27;20110;-41
2022/04/15 09:36:47;;;;;;;9.45;5.53;;;12.70;99.90;;;;;;5146442;27;20094;-42
2022/04/15 09:39:16;;;;;;;9.07;5.35;;;12.50;99.90;;;;;;5144782;27;20016;-40
2022/04/15 09:41:50;;;;;;;8.77;5.65;;;12.50;99.90;;;;;;5142581;27;20015;-40
2022/04/15 09:44:16;;;;;;;9.00;6.13;;;12.30;99.90;;;;;;5145770;27;20027;-40
2022/04/15 09:46:42;;;;;;;11.73;5.93;;;12.30;99.90;;;;;;5142104;27;20019;-42
2022/04/15 09:49:08;;;;;;;7.57;5.28;;;12.40;99.90;;;;;;5145201;27;20096;-42
2022/04/15 09:51:44;;;;;;;10.25;5.90;;;12.40;99.90;;;;;;5137701;27;20026;-41
2022/04/15 09:54:24;;;;;;;8.40;4.82;;;12.30;99.90;;;;;;5132140;27;20552;-41
2022/04/15 09:56:51;;;;;;;9.75;5.68;;;12.20;99.90;;;;;;5143739;27;20027;-43
2022/04/15 09:59:20;;;;;;;8.60;6.20;;;12.10;99.90;;;;;;5154565;27;20027;-42
2022/04/15 10:01:48;;;;;;;10.63;6.18;;;11.90;99.90;;;;;;5133270;27;20022;-41
2022/04/15 10:04:14;;;;;;;8.20;5.38;;;11.90;99.90;;;;;;5147743;27;20533;-42
2022/04/15 10:06:42;;;;;;;8.48;5.47;;;11.80;99.90;;;;;;5147666;27;20030;-42
2022/04/15 10:09:12;;;;;;;8.57;5.90;;;11.60;99.90;;;;;;5147719;27;20042;-42
2022/04/15 10:11:48;;;;;;;9.55;6.07;;;11.60;99.90;;;;;;5151300;27;20037;-41
2022/04/15 10:14:16;;;;;;;8.57;6.13;;;11.50;99.90;;;;;;5126231;27;20027;-42
2022/04/15 10:16:43;;;;;;;8.85;6.05;;;11.40;99.90;;;;;;5125607;27;20104;-41
2022/04/15 10:19:10;;;;;;;7.85;6.32;;;11.30;99.90;;;;;;5123963;27;20048;-42
2022/04/15 10:21:42;;;;;;;8.65;5.80;;;11.40;99.90;;;;;;5147261;27;20025;-41
2022/04/15 10:24:09;;;;;;;12.43;6.45;;;11.40;99.90;;;;;;5142930;27;20051;-42
2022/04/15 10:26:45;;;;;;;8.23;5.45;;;11.50;99.90;;;;;;5151318;27;20027;-42
2022/04/15 10:29:12;;;;;;;9.40;6.35;;;11.60;99.90;;;;;;5137097;27;20085;-42
2022/04/15 10:31:39;;;;;;;11.18;6.07;;;11.70;99.90;;;;;;5143125;27;20030;-42
2022/04/15 10:34:13;;;;;;;9.05;5.95;;;12.00;99.90;;;;;;5124770;27;20015;-42
2022/04/15 10:36:54;;;;;;;8.88;6.47;;;12.20;99.90;;;;;;5143434;27;20019;-41
2022/04/15 10:39:22;;;;;;;8.57;6.00;;;12.30;99.90;;;;;;5139658;27;20048;-42
2022/04/15 10:41:51;;;;;;;9.23;5.72;;;12.30;99.90;;;;;;5140232;27;20049;-41
2022/04/15 10:44:27;;;;;;;9.77;6.38;;;12.30;99.90;;;;;;5129953;27;20015;-41
2022/04/15 10:46:56;;;;;;;11.20;6.65;;;12.20;99.90;;;;;;5133369;27;20111;-41
2022/04/15 10:49:26;;;;;;;11.10;6.65;;;12.30;99.90;;;;;;5135901;27;20601;-42
2022/04/15 10:52:02;;;;;;;11.90;7.05;;;12.10;99.90;;;;;;5141139;27;20067;-42
2022/04/15 10:54:38;;;;;;;9.48;6.53;;;11.90;99.90;;;;;;5133741;27;20058;-41
2022/04/15 10:57:09;;;;;;;8.77;6.22;;;11.90;99.90;;;;;;5138857;27;20454;-41
2022/04/15 11:02:22;;;;;;;10.95;7.10;;;11.80;99.90;;;;;;5148715;27;20059;-42
2022/04/15 11:04:49;;;;;;;12.10;6.82;;;11.70;99.90;;;;;;5140191;27;20691;-41
2022/04/15 11:07:29;;;;;;;10.93;7.18;;;11.70;99.90;;;;;;5146570;27;20051;-41
2022/04/15 11:09:59;;;;;;;10.50;6.32;;;11.80;99.90;;;;;;5142222;27;20027;-44
2022/04/15 11:12:33;;;;;;;12.17;7.33;;;12.10;99.90;;;;;;5149177;27;20019;-41
2022/04/15 11:14:59;;;;;;;7.85;5.85;;;12.30;99.90;;;;;;5142753;27;20068;-41
2022/04/15 11:17:44;;;;;;;9.43;6.78;;;12.30;99.90;;;;;;5124620;27;20598;-41
2022/04/15 11:20:10;;;;;;;12.32;6.72;;;12.30;99.90;;;;;;5130140;27;20015;-41
2022/04/15 11:22:40;;;;;;;11.50;7.45;;;12.30;99.90;;;;;;5140236;27;20034;-41
2022/04/15 11:25:09;;;;;;;10.82;6.93;;;12.20;99.90;;;;;;5152720;27;20664;-42
2022/04/15 11:27:39;;;;;;;9.98;6.38;;;12.20;99.90;;;;;;5132886;27;20140;-42
2022/04/15 11:30:13;;;;;;;9.70;6.97;;;12.20;99.90;;;;;;5131244;27;20011;-42
2022/04/15 11:33:05;;;;;;;11.43;7.28;;;12.20;99.90;;;;;;5144363;27;20022;-40
2022/04/15 11:35:35;;;;;;;13.23;8.35;;;12.10;99.90;;;;;;5149241;27;20527;-43
2022/04/15 11:38:14;;;;;;;14.05;8.10;;;12.10;99.90;;;;;;5138951;27;20076;-42
2022/04/15 11:40:43;;;;;;;11.57;7.28;;;12.00;99.90;;;;;;5118781;27;20019;-42
2022/04/15 11:43:09;;;;;;;22.38;8.50;;;12.00;99.90;;;;;;5132076;27;20517;-42
2022/04/15 11:45:40;;;;;;;16.02;8.45;;;12.00;99.90;;;;;;5128393;27;20020;-42
2022/04/15 11:48:19;;;;;;;13.15;7.97;;;12.00;99.90;;;;;;5144299;27;20025;-42
2022/04/15 11:50:46;;;;;;;14.77;8.55;;;12.10;99.90;;;;;;5151480;27;20543;-41
2022/04/15 11:53:13;;;;;;;17.63;7.88;;;12.10;99.90;;;;;;5151891;27;20026;-42
2022/04/15 11:55:55;;;;;;;14.48;9.00;;;12.20;99.90;;;;;;5136663;27;20034;-41
2022/04/15 11:58:22;;;;;;;16.05;10.77;;;12.10;99.90;;;;;;5130764;27;20023;-42
2022/04/15 12:00:59;;;;;;;17.27;10.02;;;12.10;99.90;;;;;;5096512;27;20384;-42
2022/04/15 12:03:26;;;;;;;18.75;10.07;;;12.00;99.90;;;;;;5104748;28;20108;-41
2022/04/15 12:05:53;;;;;;;15.27;9.07;;;12.10;99.90;;;;;;5101137;28;20016;-40
2022/04/15 12:08:22;;;;;;;12.75;8.40;;;12.20;99.90;;;;;;5083996;28;20021;-40
2022/04/15 12:10:49;;;;;;;17.05;8.35;;;12.30;99.90;;;;;;5085325;28;20029;-41
2022/04/15 12:13:16;;;;;;;12.13;7.95;;;12.30;99.90;;;;;;5085056;28;20039;-42
2022/04/15 12:15:42;;;;;;;12.07;8.57;;;12.30;99.90;;;;;;5085478;28;20060;-42
2022/04/15 12:18:09;;;;;;;18.38;9.50;;;12.40;99.90;;;;;;5085359;28;20020;-44
2022/04/15 12:20:35;;;;;;;17.98;10.02;;;12.30;99.90;;;;;;5085440;28;20285;-39
2022/04/15 12:23:02;;;;;;;16.27;10.02;;;12.20;99.90;;;;;;5085024;28;20103;-41
2022/04/15 12:26:05;;;;;;;22.23;10.02;;;12.10;99.90;;;;;;5092868;28;20023;-40
2022/04/15 12:31:01;;;;;;;20.75;10.35;;;12.00;99.90;;;;;;5080773;28;20035;-40
2022/04/15 12:33:27;;;;;;;20.08;10.23;;;12.00;99.90;;;;;;5090446;28;20036;-42
2022/04/15 12:35:57;;;;;;;17.10;10.20;;;12.00;99.90;;;;;;5092148;28;20115;-42
2022/04/15 12:38:23;;;;;;;15.88;10.05;;;12.10;99.90;;;;;;5083996;28;20036;-41
2022/04/15 12:40:49;;;;;;;17.23;9.27;;;12.00;99.90;;;;;;5091980;28;20039;-40
2022/04/15 12:43:16;;;;;;;18.42;10.48;;;12.10;99.90;;;;;;5098718;28;20495;-41
2022/04/15 12:45:50;;;;;;;15.57;10.25;;;12.20;99.90;;;;;;5100439;28;20031;-41
2022/04/15 12:48:15;;;;;;;15.25;9.80;;;12.20;99.90;;;;;;5097981;28;20032;-40
2022/04/15 12:50:46;;;;;;;14.55;8.35;;;12.20;99.90;;;;;;5105337;28;20036;-41